Time;durP1;ratioP1;P1;durP2;ratioP2;P2;SDS_P1;SDS_P2;PMS_P1;PMS_P2;Temp;Humidity;BMP_temperature;BMP_pressure;BME280_temperature;BME280_humidity;BME280_pressure;Samples;Min_cycle;Max_cycle;Signal;HPM_P1;HPM_P2
2023/04/28 00:01:22;;;;;;;0.90;0.80;;;18.50;45.70;;;;;;6198547;23;20262;-82
2023/04/28 00:03:48;;;;;;;2.53;0.80;;;18.50;45.70;;;;;;6121808;23;20132;-83
2023/04/28 00:06:14;;;;;;;0.70;0.70;;;18.40;45.70;;;;;;6198770;23;20197;-83
2023/04/28 00:08:40;;;;;;;1.30;0.75;;;18.50;45.80;;;;;;6121783;23;20568;-83
2023/04/28 00:11:10;;;;;;;1.10;0.70;;;18.50;45.80;;;;;;6223904;23;20143;-83
2023/04/28 00:13:36;;;;;;;1.08;0.77;;;18.50;45.80;;;;;;6121766;23;20482;-84
2023/04/28 00:16:02;;;;;;;1.85;0.65;;;18.50;45.90;;;;;;6121625;23;20140;-84
2023/04/28 00:18:28;;;;;;;1.30;0.73;;;18.50;45.80;;;;;;6198187;23;20178;-84
2023/04/28 00:20:55;;;;;;;1.17;0.63;;;18.50;45.90;;;;;;6223534;23;20172;-82
2023/04/28 00:23:21;;;;;;;1.58;0.70;;;18.40;45.80;;;;;;6223818;23;20468;-83
2023/04/28 00:25:54;;;;;;;1.25;0.95;;;18.40;45.80;;;;;;6223639;23;20231;-82
2023/04/28 00:28:20;;;;;;;0.80;0.80;;;18.50;45.90;;;;;;6223284;23;20136;-83
2023/04/28 00:30:46;;;;;;;1.10;0.68;;;18.50;46.00;;;;;;6121531;23;20527;-83
2023/04/28 00:33:12;;;;;;;1.20;0.80;;;18.50;45.90;;;;;;6223523;23;20192;-82
2023/04/28 00:35:40;;;;;;;0.60;0.60;;;18.40;45.90;;;;;;6224682;23;20194;-82
2023/04/28 00:38:06;;;;;;;3.97;1.08;;;18.40;45.80;;;;;;6200547;23;20162;-83
2023/04/28 00:40:34;;;;;;;1.38;0.73;;;18.50;45.90;;;;;;6225346;23;20183;-83
2023/04/28 00:43:00;;;;;;;0.90;0.68;;;18.50;45.80;;;;;;6199951;23;20663;-83
2023/04/28 00:45:26;;;;;;;0.90;0.80;;;18.50;45.90;;;;;;6200138;23;20176;-83
2023/04/28 00:47:52;;;;;;;1.45;0.80;;;18.40;45.80;;;;;;6199839;23;20175;-83
2023/04/28 00:50:18;;;;;;;3.20;0.77;;;18.50;46.00;;;;;;6199948;23;20635;-83
2023/04/28 00:52:44;;;;;;;1.13;0.80;;;18.40;45.90;;;;;;6199791;23;20491;-82
2023/04/28 00:55:10;;;;;;;0.68;0.68;;;18.40;46.00;;;;;;6225298;23;20156;-82
2023/04/28 00:57:36;;;;;;;0.50;0.50;;;18.50;46.00;;;;;;6123036;23;20147;-83
2023/04/28 01:00:03;;;;;;;1.02;0.70;;;18.40;46.00;;;;;;6123335;23;20140;-82
2023/04/28 01:02:29;;;;;;;1.30;0.77;;;18.40;45.90;;;;;;6224798;23;20217;-82
2023/04/28 01:04:56;;;;;;;2.05;0.68;;;18.40;46.00;;;;;;6225064;23;20464;-82
2023/04/28 01:07:22;;;;;;;3.70;0.90;;;18.40;46.00;;;;;;6199758;23;20509;-84
2023/04/28 01:09:48;;;;;;;0.70;0.60;;;18.40;46.00;;;;;;6225271;23;20556;-83
2023/04/28 01:12:14;;;;;;;1.00;0.90;;;18.40;46.00;;;;;;6199851;23;20163;-83
2023/04/28 01:14:40;;;;;;;1.13;0.80;;;18.40;46.00;;;;;;6225126;23;20149;-83
2023/04/28 01:17:06;;;;;;;1.13;0.60;;;18.40;46.00;;;;;;6225551;23;20216;-83
2023/04/28 01:19:32;;;;;;;1.33;0.65;;;18.40;46.00;;;;;;6225559;23;20555;-84
2023/04/28 01:21:58;;;;;;;1.20;0.60;;;18.40;46.10;;;;;;6199664;23;20238;-83
2023/04/28 01:24:24;;;;;;;1.02;0.70;;;18.40;46.10;;;;;;6199617;23;20475;-83
2023/04/28 01:26:50;;;;;;;3.28;0.80;;;18.40;46.10;;;;;;6200670;23;20155;-82
2023/04/28 01:29:16;;;;;;;1.42;0.90;;;18.40;46.10;;;;;;6224576;23;20566;-84
2023/04/28 01:31:42;;;;;;;1.65;0.70;;;18.40;46.10;;;;;;6220756;23;20219;-84
2023/04/28 01:34:08;;;;;;;0.82;0.68;;;18.40;46.10;;;;;;6097428;23;20249;-84
2023/04/28 01:36:34;;;;;;;1.05;0.80;;;18.30;46.10;;;;;;6121307;23;20576;-83
2023/04/28 01:39:00;;;;;;;3.10;1.25;;;18.40;46.10;;;;;;6097316;23;20156;-84
2023/04/28 01:41:26;;;;;;;1.15;0.52;;;18.30;46.20;;;;;;6097214;23;20257;-83
2023/04/28 01:43:52;;;;;;;0.60;0.60;;;18.40;46.30;;;;;;6122721;23;20215;-83
2023/04/28 01:46:18;;;;;;;0.68;0.63;;;18.40;46.30;;;;;;6097570;23;20602;-83
2023/04/28 01:48:44;;;;;;;1.33;0.77;;;18.30;46.30;;;;;;6121319;23;20174;-83
2023/04/28 01:51:09;;;;;;;0.85;0.80;;;18.30;46.30;;;;;;6121387;23;20132;-83
2023/04/28 01:53:35;;;;;;;0.52;0.52;;;18.40;46.40;;;;;;6096965;23;20159;-83
2023/04/28 01:56:01;;;;;;;1.85;0.80;;;18.40;46.20;;;;;;6121322;23;20140;-83
2023/04/28 01:58:27;;;;;;;1.33;0.70;;;18.40;46.40;;;;;;6121592;23;20137;-83
2023/04/28 02:00:53;;;;;;;1.17;0.60;;;18.30;46.40;;;;;;6121088;23;20171;-83
2023/04/28 02:03:19;;;;;;;1.40;0.70;;;18.30;46.40;;;;;;6121292;23;20468;-84
2023/04/28 02:05:45;;;;;;;0.68;0.60;;;18.40;46.40;;;;;;6121785;23;20221;-83
2023/04/28 02:08:11;;;;;;;1.42;0.57;;;18.30;46.40;;;;;;6121264;23;20137;-83
2023/04/28 02:10:37;;;;;;;2.17;0.50;;;18.30;46.40;;;;;;6096857;23;20229;-83
2023/04/28 02:13:03;;;;;;;2.30;0.70;;;18.30;46.30;;;;;;6096788;23;20152;-83
2023/04/28 02:15:29;;;;;;;0.95;0.70;;;18.40;46.40;;;;;;6121389;23;20452;-83
2023/04/28 02:17:55;;;;;;;1.17;0.80;;;18.30;46.40;;;;;;6121201;23;20155;-83
2023/04/28 02:20:21;;;;;;;0.70;0.60;;;18.30;46.70;;;;;;6122844;23;20537;-83
2023/04/28 02:22:47;;;;;;;1.70;0.70;;;18.30;46.40;;;;;;6097145;23;20638;-83
2023/04/28 02:25:13;;;;;;;1.45;0.70;;;18.30;46.40;;;;;;6122576;23;20137;-83
2023/04/28 02:27:39;;;;;;;0.82;0.82;;;18.30;46.50;;;;;;6096632;23;20555;-83
2023/04/28 02:30:05;;;;;;;0.73;0.65;;;18.20;46.40;;;;;;6122806;23;20639;-84
2023/04/28 02:32:31;;;;;;;2.78;0.80;;;18.30;46.50;;;;;;6166674;23;20702;-83
2023/04/28 02:34:57;;;;;;;0.90;0.73;;;18.30;46.50;;;;;;6199426;23;20144;-83
2023/04/28 02:37:23;;;;;;;0.60;0.60;;;18.30;46.40;;;;;;6199608;23;20151;-83
2023/04/28 02:39:49;;;;;;;1.80;0.90;;;18.30;46.50;;;;;;6224169;23;20226;-83
2023/04/28 02:42:15;;;;;;;1.30;0.65;;;18.30;46.60;;;;;;6224343;23;20235;-84
2023/04/28 02:44:41;;;;;;;1.10;0.70;;;18.30;46.50;;;;;;6223973;23;20144;-83
2023/04/28 02:47:07;;;;;;;1.15;0.80;;;18.20;46.60;;;;;;6198781;23;20580;-83
2023/04/28 02:49:33;;;;;;;1.00;0.90;;;18.30;46.60;;;;;;6224330;23;20178;-83
2023/04/28 02:51:59;;;;;;;1.10;0.65;;;18.30;46.60;;;;;;6224196;23;20140;-83
2023/04/28 02:54:26;;;;;;;1.42;0.93;;;18.30;46.70;;;;;;6122712;23;20468;-83
2023/04/28 02:56:56;;;;;;;1.58;0.77;;;18.30;46.80;;;;;;6224820;23;20148;-84
2023/04/28 02:59:22;;;;;;;0.75;0.70;;;18.30;46.70;;;;;;6122419;23;20136;-83
2023/04/28 03:01:48;;;;;;;2.22;0.80;;;18.30;46.80;;;;;;6198524;23;20172;-83
2023/04/28 03:04:15;;;;;;;0.70;0.60;;;18.30;46.80;;;;;;6224532;23;20156;-83
2023/04/28 03:06:41;;;;;;;0.60;0.60;;;18.20;47.30;;;;;;6198807;23;20483;-83
2023/04/28 03:09:07;;;;;;;1.23;0.77;;;18.20;47.40;;;;;;6223882;23;20498;-83
2023/04/28 03:11:33;;;;;;;0.80;0.80;;;18.30;46.80;;;;;;6223939;23;20468;-84
2023/04/28 03:13:59;;;;;;;1.42;0.65;;;18.30;46.70;;;;;;6199274;23;20148;-83
2023/04/28 03:16:25;;;;;;;0.75;0.57;;;18.20;46.70;;;;;;6198841;23;20502;-83
2023/04/28 03:18:51;;;;;;;0.85;0.73;;;18.30;46.90;;;;;;6224549;23;20140;-83
2023/04/28 03:21:17;;;;;;;0.70;0.60;;;18.30;46.90;;;;;;6122205;23;20187;-83
2023/04/28 03:23:43;;;;;;;1.77;0.60;;;18.20;46.90;;;;;;6223759;23;20164;-83
2023/04/28 03:26:09;;;;;;;1.23;0.70;;;18.30;46.90;;;;;;6224146;23;20216;-84
2023/04/28 03:28:35;;;;;;;1.13;0.80;;;18.20;46.70;;;;;;6224077;23;20136;-84
2023/04/28 03:31:01;;;;;;;1.13;0.80;;;18.20;46.80;;;;;;6122464;23;20140;-83
2023/04/28 03:33:27;;;;;;;1.17;0.77;;;18.20;46.80;;;;;;6122070;22;20191;-83
2023/04/28 03:35:53;;;;;;;0.70;0.70;;;18.20;46.90;;;;;;6224275;23;20146;-83
2023/04/28 03:38:20;;;;;;;0.85;0.70;;;18.30;46.90;;;;;;6122457;23;20168;-82
2023/04/28 03:40:46;;;;;;;1.35;0.90;;;18.20;46.70;;;;;;6223660;23;20643;-83
2023/04/28 03:43:11;;;;;;;0.80;0.80;;;18.20;46.80;;;;;;6223963;23;20133;-82
2023/04/28 03:45:37;;;;;;;0.70;0.70;;;18.20;46.80;;;;;;6223733;23;20144;-83
2023/04/28 03:48:04;;;;;;;1.17;0.70;;;18.20;46.90;;;;;;6224104;23;20175;-83
2023/04/28 03:50:30;;;;;;;1.48;0.80;;;18.30;46.80;;;;;;6121921;23;20133;-83
2023/04/28 03:52:56;;;;;;;1.17;0.73;;;18.20;46.80;;;;;;6223945;23;20159;-83
2023/04/28 03:55:21;;;;;;;1.10;0.70;;;18.20;46.90;;;;;;6122621;23;20140;-83
2023/04/28 03:57:47;;;;;;;2.33;0.70;;;18.20;46.90;;;;;;6223518;23;20179;-83
2023/04/28 04:00:13;;;;;;;1.17;0.70;;;18.20;47.00;;;;;;6223798;23;20156;-83
2023/04/28 04:02:39;;;;;;;0.82;0.70;;;18.20;47.00;;;;;;6223496;23;20141;-83
2023/04/28 04:05:05;;;;;;;0.80;0.70;;;18.20;47.00;;;;;;6223845;23;20223;-83
2023/04/28 04:07:31;;;;;;;1.80;0.70;;;18.20;47.00;;;;;;6223914;23;20140;-84
2023/04/28 04:09:57;;;;;;;2.63;0.70;;;18.20;47.00;;;;;;6200102;23;20175;-83
2023/04/28 04:12:23;;;;;;;0.70;0.70;;;18.20;46.90;;;;;;6225398;23;20137;-83
2023/04/28 04:14:49;;;;;;;0.60;0.60;;;18.20;46.90;;;;;;6225760;23;20140;-82
2023/04/28 04:17:15;;;;;;;1.20;0.60;;;18.20;47.10;;;;;;6123085;23;20136;-83
2023/04/28 04:19:41;;;;;;;0.75;0.70;;;18.10;47.10;;;;;;6123316;23;20136;-83
2023/04/28 04:22:07;;;;;;;2.17;0.70;;;18.20;47.10;;;;;;6200650;23;20665;-82
2023/04/28 04:24:33;;;;;;;0.77;0.60;;;18.20;47.10;;;;;;6225877;23;20133;-83
2023/04/28 04:26:59;;;;;;;0.80;0.70;;;18.10;47.20;;;;;;6200000;23;20464;-83
2023/04/28 04:29:25;;;;;;;2.40;0.80;;;18.10;47.20;;;;;;6200326;23;20209;-83
2023/04/28 04:31:51;;;;;;;1.15;0.73;;;18.20;47.20;;;;;;6199864;23;20249;-83
2023/04/28 04:34:17;;;;;;;0.80;0.60;;;18.20;47.20;;;;;;6200475;23;20227;-83
2023/04/28 04:36:43;;;;;;;0.85;0.68;;;18.20;47.20;;;;;;6199801;23;20647;-83
2023/04/28 04:39:09;;;;;;;0.90;0.77;;;18.20;47.20;;;;;;6225410;23;20238;-84
2023/04/28 04:41:34;;;;;;;0.88;0.70;;;18.10;47.10;;;;;;6225384;23;20164;-84
2023/04/28 04:44:00;;;;;;;0.88;0.70;;;18.10;47.10;;;;;;6225457;23;20190;-84
2023/04/28 04:46:26;;;;;;;0.70;0.70;;;18.10;47.10;;;;;;6225761;23;20206;-82
2023/04/28 04:48:52;;;;;;;0.70;0.70;;;18.20;47.20;;;;;;6200525;23;20148;-83
2023/04/28 04:51:18;;;;;;;0.68;0.60;;;18.20;47.20;;;;;;6199996;23;20159;-83
2023/04/28 04:53:44;;;;;;;2.17;0.80;;;18.10;47.20;;;;;;6199926;23;20152;-82
2023/04/28 04:56:10;;;;;;;0.82;0.70;;;18.10;47.10;;;;;;6123013;23;20144;-84
2023/04/28 04:58:36;;;;;;;1.75;0.70;;;18.20;47.10;;;;;;6123143;23;20136;-83
2023/04/28 05:01:05;;;;;;;0.70;0.60;;;18.10;47.20;;;;;;6122812;23;20168;-84
2023/04/28 05:03:31;;;;;;;0.70;0.70;;;18.10;47.10;;;;;;6175876;23;20156;-83
2023/04/28 05:05:57;;;;;;;0.77;0.70;;;18.20;47.30;;;;;;6224826;23;20132;-84
2023/04/28 05:08:23;;;;;;;1.00;0.75;;;18.10;47.20;;;;;;6122727;23;20128;-83
2023/04/28 05:10:48;;;;;;;0.60;0.60;;;18.10;47.30;;;;;;6123242;23;20222;-84
2023/04/28 05:13:14;;;;;;;1.23;0.70;;;18.10;47.30;;;;;;6200443;23;20152;-82
2023/04/28 05:15:40;;;;;;;0.70;0.60;;;18.10;47.30;;;;;;6224925;23;20572;-83
2023/04/28 05:18:09;;;;;;;0.75;0.60;;;18.10;47.30;;;;;;6200403;23;20148;-83
2023/04/28 05:20:35;;;;;;;0.80;0.63;;;18.10;47.20;;;;;;6224442;23;20611;-82
2023/04/28 05:23:01;;;;;;;1.52;0.80;;;18.10;47.30;;;;;;6224962;23;20147;-83
2023/04/28 05:25:27;;;;;;;1.20;0.65;;;18.10;47.30;;;;;;6224993;23;20143;-82
2023/04/28 05:27:53;;;;;;;1.15;0.90;;;18.10;47.30;;;;;;6224154;23;20129;-82
2023/04/28 05:30:19;;;;;;;1.10;0.70;;;18.10;47.40;;;;;;6199206;23;20227;-83
2023/04/28 05:32:45;;;;;;;0.70;0.70;;;18.10;47.30;;;;;;6167384;23;20268;-82
2023/04/28 05:35:11;;;;;;;1.50;0.80;;;18.10;47.40;;;;;;6121238;23;20133;-84
2023/04/28 05:37:37;;;;;;;3.00;0.80;;;18.10;47.30;;;;;;6121425;23;20208;-82
2023/04/28 05:40:03;;;;;;;1.17;0.80;;;18.10;47.30;;;;;;6097398;23;20155;-84
2023/04/28 05:42:29;;;;;;;0.88;0.80;;;18.10;47.40;;;;;;6097309;23;20534;-83
2023/04/28 05:44:54;;;;;;;0.95;0.70;;;18.10;47.40;;;;;;6097179;23;20135;-82
2023/04/28 05:47:20;;;;;;;1.00;0.80;;;18.10;47.40;;;;;;6097398;23;20144;-82
2023/04/28 05:49:46;;;;;;;0.95;0.73;;;18.10;47.50;;;;;;6121921;23;20464;-84
2023/04/28 05:52:12;;;;;;;1.20;0.80;;;18.10;47.50;;;;;;6122691;23;20564;-83
2023/04/28 05:54:37;;;;;;;0.98;0.60;;;18.10;47.50;;;;;;6096975;23;20502;-82
2023/04/28 05:57:03;;;;;;;0.60;0.57;;;18.10;47.40;;;;;;6097030;23;20148;-83
2023/04/28 05:59:30;;;;;;;0.73;0.73;;;18.10;47.50;;;;;;6097621;23;20491;-84
2023/04/28 06:01:56;;;;;;;0.90;0.65;;;18.10;47.50;;;;;;6073115;23;20176;-84
2023/04/28 06:04:23;;;;;;;0.90;0.70;;;18.10;47.50;;;;;;6121905;23;20148;-83
2023/04/28 06:06:49;;;;;;;0.88;0.63;;;18.10;47.50;;;;;;6122618;23;20156;-82
2023/04/28 06:09:15;;;;;;;0.70;0.57;;;18.10;48.20;;;;;;6121620;23;20563;-82
2023/04/28 06:11:41;;;;;;;1.27;0.68;;;18.10;47.50;;;;;;6121080;23;20145;-82
2023/04/28 06:14:07;;;;;;;0.70;0.70;;;18.10;47.60;;;;;;6122989;23;20151;-84
2023/04/28 06:16:33;;;;;;;0.57;0.50;;;18.20;47.60;;;;;;6122517;23;20140;-82
2023/04/28 06:18:59;;;;;;;0.80;0.75;;;18.00;47.50;;;;;;6121367;23;20194;-82
2023/04/28 06:21:27;;;;;;;0.85;0.80;;;18.10;47.50;;;;;;6122757;23;20198;-83
2023/04/28 06:23:53;;;;;;;1.00;0.90;;;18.10;47.50;;;;;;6097414;23;20589;-82
2023/04/28 06:26:19;;;;;;;1.02;0.60;;;18.10;47.60;;;;;;6121325;23;20136;-82
2023/04/28 06:28:45;;;;;;;1.00;0.70;;;18.10;47.60;;;;;;6097553;23;20219;-83
2023/04/28 06:31:11;;;;;;;0.82;0.63;;;18.10;47.60;;;;;;6122933;23;20473;-84
2023/04/28 06:33:37;;;;;;;1.13;0.60;;;18.10;47.60;;;;;;6122693;22;20223;-82
2023/04/28 06:36:03;;;;;;;0.82;0.60;;;18.20;47.60;;;;;;6224905;23;20132;-84
2023/04/28 06:38:29;;;;;;;0.90;0.70;;;18.10;47.60;;;;;;6198825;23;20152;-83
2023/04/28 06:40:55;;;;;;;1.70;0.70;;;18.10;47.50;;;;;;6224880;23;20174;-82
2023/04/28 06:43:21;;;;;;;1.55;0.65;;;18.10;47.80;;;;;;6224431;23;20129;-83
2023/04/28 06:45:49;;;;;;;1.17;0.73;;;18.30;48.00;;;;;;6224013;23;20159;-83
2023/04/28 06:48:16;;;;;;;0.70;0.60;;;18.30;48.00;;;;;;6226194;23;20144;-82
2023/04/28 06:50:42;;;;;;;2.35;0.60;;;18.30;47.70;;;;;;6226377;23;20155;-83
2023/04/28 06:53:07;;;;;;;2.22;0.73;;;18.30;47.20;;;;;;6225612;23;20162;-83
2023/04/28 06:55:34;;;;;;;2.15;0.70;;;18.30;47.30;;;;;;6175442;23;20152;-84
2023/04/28 06:58:01;;;;;;;4.82;0.80;;;18.40;48.10;;;;;;6225864;23;20151;-84
2023/04/28 07:00:26;;;;;;;2.20;0.80;;;18.40;47.10;;;;;;6175059;23;20152;-83
2023/04/28 07:02:52;;;;;;;2.00;0.70;;;18.40;47.30;;;;;;6174415;23;20534;-84
2023/04/28 07:05:18;;;;;;;3.03;0.80;;;18.40;47.10;;;;;;6123325;23;20147;-84
2023/04/28 07:07:44;;;;;;;1.70;0.50;;;18.40;47.00;;;;;;6174921;23;20148;-83
2023/04/28 07:10:10;;;;;;;0.60;0.50;;;18.50;46.80;;;;;;6174599;23;20152;-83
2023/04/28 07:12:36;;;;;;;1.92;0.60;;;18.50;46.80;;;;;;6199467;23;20152;-82
2023/04/28 07:15:03;;;;;;;5.13;0.70;;;18.50;46.70;;;;;;6199957;23;20620;-84
2023/04/28 07:17:28;;;;;;;1.05;0.57;;;18.50;46.70;;;;;;6224409;23;20215;-84
2023/04/28 07:19:54;;;;;;;0.93;0.40;;;18.60;46.70;;;;;;6224634;23;20135;-84
2023/04/28 07:22:20;;;;;;;1.45;0.45;;;18.60;46.70;;;;;;6122810;23;20213;-84
2023/04/28 07:24:45;;;;;;;1.58;0.43;;;18.60;46.60;;;;;;6198944;23;20183;-84
2023/04/28 07:27:11;;;;;;;1.92;0.50;;;18.60;46.50;;;;;;6174811;23;20170;-83
2023/04/28 07:29:37;;;;;;;0.60;0.60;;;18.60;46.60;;;;;;6225444;23;20154;-84
2023/04/28 07:32:04;;;;;;;2.72;0.57;;;18.60;46.60;;;;;;6224398;23;20275;-84
2023/04/28 07:34:30;;;;;;;2.05;0.60;;;18.60;46.70;;;;;;6122330;23;20148;-83
2023/04/28 07:36:57;;;;;;;3.20;0.57;;;18.60;46.60;;;;;;6224310;23;20140;-84
2023/04/28 07:39:23;;;;;;;3.03;0.57;;;18.60;46.60;;;;;;6122844;23;20572;-85
2023/04/28 07:41:49;;;;;;;4.70;0.70;;;18.60;46.50;;;;;;6122713;23;20215;-84
2023/04/28 07:44:15;;;;;;;1.77;0.60;;;18.60;46.60;;;;;;6199812;23;20208;-84
2023/04/28 07:46:40;;;;;;;2.83;0.80;;;18.60;46.40;;;;;;6226280;23;20136;-85
2023/04/28 07:49:07;;;;;;;4.72;0.60;;;18.60;46.70;;;;;;6201250;23;20441;-85
2023/04/28 07:51:32;;;;;;;5.22;0.80;;;18.60;46.50;;;;;;6225278;23;20572;-82
2023/04/28 07:53:58;;;;;;;5.57;1.02;;;18.60;46.50;;;;;;6200744;23;20147;-83
2023/04/28 07:56:25;;;;;;;4.25;0.80;;;18.60;46.50;;;;;;6225854;23;20297;-84
2023/04/28 07:58:51;;;;;;;2.58;0.60;;;18.60;46.70;;;;;;6226008;23;20133;-83
2023/04/28 08:01:16;;;;;;;8.68;1.00;;;18.60;46.60;;;;;;6200608;23;20180;-82
2023/04/28 08:03:43;;;;;;;6.05;0.70;;;18.60;46.70;;;;;;6225974;23;20144;-83
2023/04/28 08:06:09;;;;;;;3.72;0.70;;;18.60;46.60;;;;;;6225492;23;20140;-83
2023/04/28 08:08:35;;;;;;;6.05;1.40;;;18.60;46.50;;;;;;6123508;23;20652;-82
2023/04/28 08:11:01;;;;;;;8.77;1.17;;;18.60;46.70;;;;;;6224796;23;20140;-83
2023/04/28 08:13:27;;;;;;;5.30;0.77;;;18.60;46.70;;;;;;6175691;23;20161;-83
2023/04/28 08:15:55;;;;;;;3.20;0.75;;;18.60;46.60;;;;;;6200678;23;20137;-82
2023/04/28 08:18:22;;;;;;;6.15;1.00;;;18.60;46.60;;;;;;6223613;23;20457;-84
2023/04/28 08:20:48;;;;;;;5.93;0.90;;;18.60;46.60;;;;;;6202075;23;20561;-83
2023/04/28 08:23:13;;;;;;;6.35;0.70;;;18.70;46.70;;;;;;6226928;23;20942;-83
2023/04/28 08:25:39;;;;;;;4.88;0.82;;;18.70;46.50;;;;;;6200883;23;20145;-83
2023/04/28 08:28:07;;;;;;;2.50;0.70;;;18.60;46.70;;;;;;6223760;23;20136;-83
2023/04/28 08:30:37;;;;;;;4.10;0.82;;;18.60;46.50;;;;;;6122819;23;20136;-83
2023/04/28 08:33:25;;;;;;;4.10;0.70;;;18.70;46.50;;;;;;6148877;23;20204;-84
2023/04/28 08:35:54;;;;;;;5.10;0.90;;;18.70;46.50;;;;;;6172383;23;20163;-83
2023/04/28 08:38:22;;;;;;;1.23;0.50;;;18.70;46.40;;;;;;6149742;23;20206;-82
2023/04/28 08:40:48;;;;;;;5.20;0.70;;;18.70;46.30;;;;;;6172991;23;20315;-83
2023/04/28 08:43:15;;;;;;;5.28;1.02;;;18.70;46.40;;;;;;6174626;23;20190;-83
2023/04/28 08:45:41;;;;;;;2.63;0.70;;;18.70;46.40;;;;;;6149010;23;20152;-83
2023/04/28 08:48:21;;;;;;;3.90;0.50;;;18.70;46.20;;;;;;6174782;23;20144;-83
2023/04/28 08:50:50;;;;;;;3.70;0.90;;;18.60;46.20;;;;;;6222025;23;20493;-83
2023/04/28 08:53:22;;;;;;;4.15;0.50;;;18.60;46.20;;;;;;6174480;23;20144;-83
2023/04/28 08:55:51;;;;;;;4.10;0.60;;;18.70;46.10;;;;;;6200702;23;20139;-83
2023/04/28 08:58:17;;;;;;;2.88;0.73;;;18.70;46.20;;;;;;6224611;23;20141;-83
2023/04/28 09:00:43;;;;;;;2.55;0.85;;;18.70;46.10;;;;;;6224327;23;20175;-83
2023/04/28 09:03:09;;;;;;;2.78;0.60;;;18.70;46.70;;;;;;6123388;23;20556;-83
2023/04/28 09:05:36;;;;;;;2.85;0.68;;;18.70;46.00;;;;;;6225058;23;20133;-83
2023/04/28 09:08:05;;;;;;;2.67;0.50;;;18.80;45.80;;;;;;6225901;23;20183;-84
2023/04/28 09:10:32;;;;;;;4.40;0.90;;;18.80;46.00;;;;;;6152557;23;20156;-84
2023/04/28 09:12:58;;;;;;;5.97;0.93;;;18.60;46.10;;;;;;6226793;23;20587;-84
2023/04/28 09:15:30;;;;;;;3.72;0.80;;;18.70;46.20;;;;;;6228381;23;20448;-83
2023/04/28 09:17:56;;;;;;;1.40;0.52;;;18.70;46.10;;;;;;6202163;23;20140;-84
2023/04/28 09:20:23;;;;;;;2.38;0.73;;;18.70;46.20;;;;;;6226073;23;20144;-84
2023/04/28 09:22:49;;;;;;;4.00;0.70;;;18.70;46.20;;;;;;6201024;23;20148;-83
2023/04/28 09:25:15;;;;;;;0.65;0.40;;;18.70;46.00;;;;;;6225635;23;20517;-84
2023/04/28 09:27:41;;;;;;;1.10;0.40;;;18.70;46.00;;;;;;6124603;23;20132;-83
2023/04/28 09:30:08;;;;;;;0.93;0.50;;;18.70;45.80;;;;;;6226707;23;20642;-83
2023/04/28 09:32:35;;;;;;;0.80;0.60;;;18.70;45.90;;;;;;6201076;23;20203;-84
2023/04/28 09:35:01;;;;;;;1.55;0.40;;;18.60;46.00;;;;;;6201571;23;20577;-84
2023/04/28 09:37:29;;;;;;;3.50;0.52;;;18.70;46.00;;;;;;6227431;23;20210;-83
2023/04/28 09:39:56;;;;;;;0.70;0.50;;;18.70;45.70;;;;;;6202581;23;20206;-84
2023/04/28 09:42:33;;;;;;;2.10;0.98;;;18.70;45.60;;;;;;6225210;23;20168;-84
2023/04/28 09:45:01;;;;;;;2.25;0.50;;;18.70;45.70;;;;;;6225376;23;20139;-83
2023/04/28 09:47:27;;;;;;;1.45;0.55;;;18.70;45.60;;;;;;6200248;23;20148;-84
2023/04/28 09:49:55;;;;;;;0.88;0.50;;;18.70;45.40;;;;;;6175174;23;20520;-84
2023/04/28 09:52:22;;;;;;;0.45;0.40;;;18.70;45.50;;;;;;6175189;23;20468;-84
2023/04/28 09:54:50;;;;;;;1.20;0.52;;;18.60;45.40;;;;;;6200027;23;20152;-84
2023/04/28 09:57:17;;;;;;;2.38;0.60;;;18.80;45.60;;;;;;6199743;23;20153;-84
2023/04/28 09:59:46;;;;;;;0.93;0.50;;;18.70;45.80;;;;;;6200204;23;20148;-84
2023/04/28 10:02:14;;;;;;;0.80;0.50;;;18.70;45.60;;;;;;6199149;23;20176;-84
2023/04/28 10:04:43;;;;;;;1.15;0.47;;;18.70;45.60;;;;;;6199391;23;20232;-84
2023/04/28 10:07:10;;;;;;;1.13;0.60;;;18.70;45.60;;;;;;6199170;23;20148;-84
2023/04/28 10:09:36;;;;;;;0.50;0.40;;;18.70;45.50;;;;;;6224540;23;20144;-85
2023/04/28 10:12:02;;;;;;;1.02;0.50;;;18.70;45.70;;;;;;6199766;23;20166;-84
2023/04/28 10:14:29;;;;;;;1.92;0.57;;;18.70;45.80;;;;;;6199530;23;20179;-84
2023/04/28 10:16:55;;;;;;;0.40;0.40;;;18.70;45.80;;;;;;6225134;23;20141;-85
2023/04/28 10:19:20;;;;;;;0.40;0.40;;;18.60;45.80;;;;;;6199698;23;20471;-84
2023/04/28 10:21:53;;;;;;;0.82;0.50;;;18.70;45.70;;;;;;6224816;23;20191;-84
2023/04/28 10:24:24;;;;;;;0.40;0.40;;;18.70;45.70;;;;;;6200239;23;20148;-84
2023/04/28 10:27:07;;;;;;;0.40;0.40;;;18.70;45.70;;;;;;6225304;23;20144;-84
2023/04/28 10:29:33;;;;;;;0.50;0.30;;;18.70;46.20;;;;;;6173519;23;20530;-84
2023/04/28 10:32:21;;;;;;;0.50;0.50;;;18.70;45.40;;;;;;6224811;23;20207;-84
2023/04/28 10:34:47;;;;;;;0.75;0.40;;;18.70;45.20;;;;;;6224023;23;20143;-84
2023/04/28 10:37:14;;;;;;;1.10;0.82;;;18.70;45.20;;;;;;6122814;23;20564;-84
2023/04/28 10:39:48;;;;;;;0.57;0.30;;;18.80;45.20;;;;;;6200304;23;20162;-84
2023/04/28 10:42:52;;;;;;;1.80;0.60;;;18.80;45.00;;;;;;6224230;23;20191;-84
2023/04/28 10:45:53;;;;;;;1.02;0.65;;;18.70;45.10;;;;;;6122256;23;20579;-85
2023/04/28 10:48:20;;;;;;;0.52;0.40;;;18.70;44.90;;;;;;6123191;23;20129;-84
2023/04/28 10:51:23;;;;;;;0.55;0.50;;;18.80;44.90;;;;;;6199309;23;20170;-84
2023/04/28 10:54:07;;;;;;;1.98;0.35;;;18.80;45.10;;;;;;6206103;23;20560;-85
2023/04/28 10:56:36;;;;;;;1.13;0.43;;;18.80;44.90;;;;;;6223380;23;20270;-84
2023/04/28 10:59:22;;;;;;;0.68;0.30;;;18.70;45.00;;;;;;6123919;23;20160;-84
2023/04/28 11:01:48;;;;;;;0.80;0.40;;;18.70;44.80;;;;;;6223822;23;20184;-85
2023/04/28 11:04:16;;;;;;;0.43;0.40;;;18.80;44.90;;;;;;6199013;23;20223;-84
2023/04/28 11:06:44;;;;;;;0.40;0.30;;;18.70;44.60;;;;;;6198737;23;20152;-84
2023/04/28 11:09:48;;;;;;;2.75;0.45;;;18.80;44.60;;;;;;6223284;23;20572;-85
2023/04/28 11:12:14;;;;;;;1.27;0.40;;;18.80;44.90;;;;;;6222949;23;20214;-84
2023/04/28 11:14:40;;;;;;;1.25;0.43;;;18.80;44.80;;;;;;6174422;23;20152;-85
2023/04/28 11:17:07;;;;;;;0.50;0.40;;;18.80;44.60;;;;;;6223412;23;20163;-84
2023/04/28 11:19:38;;;;;;;0.85;0.40;;;18.70;44.60;;;;;;6198652;23;20495;-84
2023/04/28 11:22:10;;;;;;;0.45;0.40;;;18.70;45.10;;;;;;6121935;23;20168;-84
2023/04/28 11:24:36;;;;;;;0.75;0.30;;;18.80;44.50;;;;;;6200010;23;20528;-84
2023/04/28 11:27:06;;;;;;;0.90;0.30;;;18.70;44.80;;;;;;6224278;23;20158;-84
2023/04/28 11:29:36;;;;;;;0.55;0.40;;;18.70;44.60;;;;;;6148761;23;20480;-84
2023/04/28 11:32:04;;;;;;;1.95;0.73;;;18.70;44.60;;;;;;6223996;23;20692;-84
2023/04/28 11:34:35;;;;;;;0.90;0.40;;;18.70;44.50;;;;;;6198799;23;20525;-84
2023/04/28 11:37:01;;;;;;;0.40;0.40;;;18.80;44.40;;;;;;6124635;23;20657;-84
2023/04/28 11:39:29;;;;;;;1.40;0.50;;;18.80;44.40;;;;;;6223595;23;20136;-84
2023/04/28 11:41:58;;;;;;;1.65;0.50;;;18.80;44.40;;;;;;6122392;23;20539;-83
2023/04/28 11:44:25;;;;;;;0.43;0.30;;;18.80;44.30;;;;;;6174396;23;20607;-84
2023/04/28 11:46:56;;;;;;;0.40;0.40;;;18.80;44.20;;;;;;6198682;23;20182;-84
2023/04/28 11:49:23;;;;;;;0.40;0.40;;;18.80;44.00;;;;;;6121877;23;20583;-85
2023/04/28 11:51:50;;;;;;;0.70;0.43;;;18.80;44.10;;;;;;6199043;23;20242;-84
2023/04/28 11:54:23;;;;;;;0.65;0.50;;;18.80;44.00;;;;;;6224573;23;20137;-84
2023/04/28 11:56:49;;;;;;;0.30;0.30;;;18.80;44.30;;;;;;6198113;23;20584;-84
2023/04/28 11:59:15;;;;;;;0.30;0.30;;;18.80;44.10;;;;;;6198576;23;20205;-84
2023/04/28 12:01:50;;;;;;;0.75;0.40;;;18.80;44.10;;;;;;6224501;23;20168;-83
2023/04/28 12:04:35;;;;;;;1.38;0.38;;;18.80;43.90;;;;;;6199556;23;20583;-83
2023/04/28 12:07:09;;;;;;;0.85;0.38;;;18.80;43.70;;;;;;6226136;23;20155;-83
2023/04/28 12:09:35;;;;;;;0.40;0.40;;;18.80;43.90;;;;;;6201385;23;20129;-84
2023/04/28 12:12:03;;;;;;;2.17;0.40;;;18.80;44.00;;;;;;6200865;23;20140;-85
2023/04/28 12:14:31;;;;;;;0.68;0.30;;;18.80;44.10;;;;;;6175458;23;20157;-84
2023/04/28 12:16:57;;;;;;;0.38;0.38;;;18.80;43.80;;;;;;6223104;23;20159;-84
2023/04/28 12:19:23;;;;;;;1.25;0.30;;;18.80;43.90;;;;;;6225226;23;20564;-83
2023/04/28 12:22:03;;;;;;;0.45;0.30;;;18.80;43.70;;;;;;6224926;23;20235;-84
2023/04/28 12:24:29;;;;;;;0.90;0.40;;;18.80;43.70;;;;;;6225190;23;20441;-84
2023/04/28 12:27:12;;;;;;;0.40;0.30;;;18.80;43.50;;;;;;6226430;23;20182;-84
2023/04/28 12:29:38;;;;;;;0.30;0.30;;;18.80;43.60;;;;;;6204113;23;20139;-83
2023/04/28 12:32:06;;;;;;;0.30;0.30;;;18.80;43.40;;;;;;6202472;23;20207;-83
2023/04/28 12:34:32;;;;;;;0.50;0.47;;;18.80;43.50;;;;;;6177520;23;20463;-84
2023/04/28 12:36:59;;;;;;;0.43;0.38;;;18.80;43.50;;;;;;6202493;23;20140;-82
2023/04/28 12:39:25;;;;;;;0.47;0.30;;;18.80;43.50;;;;;;6225522;23;20140;-83
2023/04/28 12:41:52;;;;;;;0.30;0.30;;;18.80;43.60;;;;;;6202881;23;20164;-83
2023/04/28 12:44:19;;;;;;;0.43;0.30;;;18.80;43.70;;;;;;6123222;23;20163;-83
2023/04/28 12:46:44;;;;;;;0.40;0.30;;;18.80;43.40;;;;;;6224882;23;20193;-83
2023/04/28 12:49:10;;;;;;;0.52;0.40;;;18.80;43.10;;;;;;6199948;23;20523;-83